sensor_id;sensor_type;location;lat;lon;timestamp;P1;durP1;ratioP1;P2;durP2;ratioP2
56043;SDS011;41912;51.022;3.664;2024-02-26T00:01:58;3.47;;;1.88;;
56043;SDS011;41912;51.022;3.664;2024-02-26T00:04:23;2.78;;;1.33;;
56043;SDS011;41912;51.022;3.664;2024-02-26T00:06:49;3.45;;;1.63;;
56043;SDS011;41912;51.022;3.664;2024-02-26T00:09:16;3.13;;;1.60;;
56043;SDS011;41912;51.022;3.664;2024-02-26T00:11:42;4.45;;;1.50;;
56043;SDS011;41912;51.022;3.664;2024-02-26T00:14:07;5.72;;;2.30;;
56043;SDS011;41912;51.022;3.664;2024-02-26T00:16:33;4.38;;;1.60;;
56043;SDS011;41912;51.022;3.664;2024-02-26T00:18:58;4.72;;;1.80;;
56043;SDS011;41912;51.022;3.664;2024-02-26T00:21:25;4.03;;;1.40;;
56043;SDS011;41912;51.022;3.664;2024-02-26T00:23:52;4.32;;;1.52;;
56043;SDS011;41912;51.022;3.664;2024-02-26T00:26:18;6.35;;;1.88;;
56043;SDS011;41912;51.022;3.664;2024-02-26T00:28:44;7.65;;;1.83;;
56043;SDS011;41912;51.022;3.664;2024-02-26T00:31:09;3.83;;;1.52;;
56043;SDS011;41912;51.022;3.664;2024-02-26T00:33:35;3.75;;;1.60;;
56043;SDS011;41912;51.022;3.664;2024-02-26T00:36:01;5.10;;;1.70;;
56043;SDS011;41912;51.022;3.664;2024-02-26T00:38:27;3.53;;;1.58;;
56043;SDS011;41912;51.022;3.664;2024-02-26T00:40:52;5.80;;;1.50;;
56043;SDS011;41912;51.022;3.664;2024-02-26T00:43:18;5.07;;;1.58;;
56043;SDS011;41912;51.022;3.664;2024-02-26T00:45:44;5.70;;;1.70;;
56043;SDS011;41912;51.022;3.664;2024-02-26T00:48:11;5.53;;;1.65;;
56043;SDS011;41912;51.022;3.664;2024-02-26T00:50:38;3.50;;;1.50;;
56043;SDS011;41912;51.022;3.664;2024-02-26T00:53:04;4.18;;;1.73;;
56043;SDS011;41912;51.022;3.664;2024-02-26T00:55:30;4.20;;;1.60;;
56043;SDS011;41912;51.022;3.664;2024-02-26T00:57:56;4.57;;;1.77;;
56043;SDS011;41912;51.022;3.664;2024-02-26T01:00:21;5.82;;;1.70;;
56043;SDS011;41912;51.022;3.664;2024-02-26T01:02:47;4.00;;;1.25;;
56043;SDS011;41912;51.022;3.664;2024-02-26T01:05:13;2.20;;;1.50;;
56043;SDS011;41912;51.022;3.664;2024-02-26T01:07:39;4.30;;;1.42;;
56043;SDS011;41912;51.022;3.664;2024-02-26T01:10:05;5.47;;;1.50;;
56043;SDS011;41912;51.022;3.664;2024-02-26T01:12:32;2.75;;;1.60;;
56043;SDS011;41912;51.022;3.664;2024-02-26T01:14:59;3.35;;;1.58;;
56043;SDS011;41912;51.022;3.664;2024-02-26T01:17:25;2.65;;;1.73;;
56043;SDS011;41912;51.022;3.664;2024-02-26T01:19:50;4.65;;;1.63;;
56043;SDS011;41912;51.022;3.664;2024-02-26T01:22:16;2.00;;;1.30;;
56043;SDS011;41912;51.022;3.664;2024-02-26T01:24:41;2.78;;;1.50;;
56043;SDS011;41912;51.022;3.664;2024-02-26T01:27:07;6.60;;;1.98;;
56043;SDS011;41912;51.022;3.664;2024-02-26T01:29:34;3.15;;;1.40;;
56043;SDS011;41912;51.022;3.664;2024-02-26T01:31:59;4.25;;;1.65;;
56043;SDS011;41912;51.022;3.664;2024-02-26T01:34:25;3.35;;;1.45;;
56043;SDS011;41912;51.022;3.664;2024-02-26T01:36:51;2.25;;;1.40;;
56043;SDS011;41912;51.022;3.664;2024-02-26T01:39:16;2.55;;;1.40;;
56043;SDS011;41912;51.022;3.664;2024-02-26T01:41:42;3.72;;;1.67;;
56043;SDS011;41912;51.022;3.664;2024-02-26T01:44:08;3.38;;;1.63;;
56043;SDS011;41912;51.022;3.664;2024-02-26T01:46:37;6.47;;;1.95;;
56043;SDS011;41912;51.022;3.664;2024-02-26T01:49:03;2.17;;;1.52;;
56043;SDS011;41912;51.022;3.664;2024-02-26T01:51:28;4.47;;;1.70;;
56043;SDS011;41912;51.022;3.664;2024-02-26T01:53:57;4.18;;;1.80;;
56043;SDS011;41912;51.022;3.664;2024-02-26T01:56:24;3.85;;;1.65;;
56043;SDS011;41912;51.022;3.664;2024-02-26T01:58:55;3.83;;;1.73;;
56043;SDS011;41912;51.022;3.664;2024-02-26T02:01:21;7.20;;;3.17;;
56043;SDS011;41912;51.022;3.664;2024-02-26T02:03:49;5.40;;;1.77;;
56043;SDS011;41912;51.022;3.664;2024-02-26T02:06:15;3.67;;;2.20;;
56043;SDS011;41912;51.022;3.664;2024-02-26T02:08:41;4.10;;;2.63;;
56043;SDS011;41912;51.022;3.664;2024-02-26T02:11:07;6.18;;;1.80;;
56043;SDS011;41912;51.022;3.664;2024-02-26T02:13:36;4.80;;;2.00;;
56043;SDS011;41912;51.022;3.664;2024-02-26T02:16:02;3.30;;;1.85;;
56043;SDS011;41912;51.022;3.664;2024-02-26T02:18:28;5.93;;;1.77;;
56043;SDS011;41912;51.022;3.664;2024-02-26T02:20:54;2.80;;;2.17;;
56043;SDS011;41912;51.022;3.664;2024-02-26T02:23:21;2.90;;;1.80;;
56043;SDS011;41912;51.022;3.664;2024-02-26T02:25:47;3.67;;;1.83;;
56043;SDS011;41912;51.022;3.664;2024-02-26T02:28:13;3.60;;;1.92;;
56043;SDS011;41912;51.022;3.664;2024-02-26T02:30:38;4.28;;;1.73;;
56043;SDS011;41912;51.022;3.664;2024-02-26T02:33:05;4.03;;;1.95;;
56043;SDS011;41912;51.022;3.664;2024-02-26T02:35:31;2.95;;;1.92;;
56043;SDS011;41912;51.022;3.664;2024-02-26T02:37:57;5.72;;;2.45;;
56043;SDS011;41912;51.022;3.664;2024-02-26T02:40:23;4.97;;;1.92;;
56043;SDS011;41912;51.022;3.664;2024-02-26T02:42:48;4.90;;;1.90;;
56043;SDS011;41912;51.022;3.664;2024-02-26T02:45:14;4.05;;;2.17;;
56043;SDS011;41912;51.022;3.664;2024-02-26T02:47:39;2.78;;;2.20;;
56043;SDS011;41912;51.022;3.664;2024-02-26T02:50:05;5.85;;;2.25;;
56043;SDS011;41912;51.022;3.664;2024-02-26T02:52:31;7.03;;;2.05;;
56043;SDS011;41912;51.022;3.664;2024-02-26T02:54:57;5.72;;;2.10;;
56043;SDS011;41912;51.022;3.664;2024-02-26T02:57:23;7.20;;;3.30;;
56043;SDS011;41912;51.022;3.664;2024-02-26T02:59:49;3.70;;;2.22;;
56043;SDS011;41912;51.022;3.664;2024-02-26T03:02:14;3.28;;;2.13;;
56043;SDS011;41912;51.022;3.664;2024-02-26T03:04:40;3.00;;;2.05;;
56043;SDS011;41912;51.022;3.664;2024-02-26T03:07:06;7.20;;;2.15;;
56043;SDS011;41912;51.022;3.664;2024-02-26T03:09:31;5.95;;;2.47;;
56043;SDS011;41912;51.022;3.664;2024-02-26T03:11:57;3.35;;;2.53;;
56043;SDS011;41912;51.022;3.664;2024-02-26T03:14:23;4.53;;;2.08;;
56043;SDS011;41912;51.022;3.664;2024-02-26T03:16:48;5.50;;;2.60;;
56043;SDS011;41912;51.022;3.664;2024-02-26T03:19:15;4.93;;;2.60;;
56043;SDS011;41912;51.022;3.664;2024-02-26T03:21:43;7.63;;;2.90;;
56043;SDS011;41912;51.022;3.664;2024-02-26T03:24:09;3.72;;;2.65;;
56043;SDS011;41912;51.022;3.664;2024-02-26T03:26:35;5.10;;;2.88;;
56043;SDS011;41912;51.022;3.664;2024-02-26T03:29:01;5.25;;;2.92;;
56043;SDS011;41912;51.022;3.664;2024-02-26T03:31:27;7.03;;;3.47;;
56043;SDS011;41912;51.022;3.664;2024-02-26T03:33:53;6.32;;;3.10;;
56043;SDS011;41912;51.022;3.664;2024-02-26T03:36:19;4.28;;;3.47;;
56043;SDS011;41912;51.022;3.664;2024-02-26T03:38:46;5.28;;;3.90;;
56043;SDS011;41912;51.022;3.664;2024-02-26T03:41:12;4.70;;;3.78;;
56043;SDS011;41912;51.022;3.664;2024-02-26T03:43:38;4.88;;;3.90;;
56043;SDS011;41912;51.022;3.664;2024-02-26T03:46:03;6.88;;;3.95;;
56043;SDS011;41912;51.022;3.664;2024-02-26T03:48:32;7.45;;;4.75;;
56043;SDS011;41912;51.022;3.664;2024-02-26T03:50:57;4.97;;;4.13;;
56043;SDS011;41912;51.022;3.664;2024-02-26T03:53:23;6.43;;;4.10;;
56043;SDS011;41912;51.022;3.664;2024-02-26T03:55:48;7.50;;;4.40;;
56043;SDS011;41912;51.022;3.664;2024-02-26T03:58:16;5.50;;;4.28;;
56043;SDS011;41912;51.022;3.664;2024-02-26T04:00:42;5.07;;;3.92;;
56043;SDS011;41912;51.022;3.664;2024-02-26T04:03:08;7.25;;;4.00;;
56043;SDS011;41912;51.022;3.664;2024-02-26T04:05:33;5.65;;;4.07;;
56043;SDS011;41912;51.022;3.664;2024-02-26T04:07:59;7.78;;;4.38;;
56043;SDS011;41912;51.022;3.664;2024-02-26T04:10:24;7.38;;;4.75;;
56043;SDS011;41912;51.022;3.664;2024-02-26T04:12:50;7.25;;;4.85;;
56043;SDS011;41912;51.022;3.664;2024-02-26T04:15:16;8.88;;;5.55;;
56043;SDS011;41912;51.022;3.664;2024-02-26T04:17:41;8.73;;;5.38;;
56043;SDS011;41912;51.022;3.664;2024-02-26T04:20:07;8.98;;;5.25;;
56043;SDS011;41912;51.022;3.664;2024-02-26T04:22:37;7.60;;;5.45;;
56043;SDS011;41912;51.022;3.664;2024-02-26T04:25:03;11.75;;;6.38;;
56043;SDS011;41912;51.022;3.664;2024-02-26T04:27:29;11.38;;;6.35;;
56043;SDS011;41912;51.022;3.664;2024-02-26T04:29:54;8.02;;;5.60;;
56043;SDS011;41912;51.022;3.664;2024-02-26T04:32:20;8.68;;;6.32;;
56043;SDS011;41912;51.022;3.664;2024-02-26T04:34:46;8.65;;;5.53;;
56043;SDS011;41912;51.022;3.664;2024-02-26T04:37:11;10.68;;;6.20;;
56043;SDS011;41912;51.022;3.664;2024-02-26T04:39:37;9.38;;;6.65;;
56043;SDS011;41912;51.022;3.664;2024-02-26T04:42:02;7.72;;;5.85;;
56043;SDS011;41912;51.022;3.664;2024-02-26T04:44:29;11.57;;;6.85;;
56043;SDS011;41912;51.022;3.664;2024-02-26T04:46:55;11.45;;;6.10;;
56043;SDS011;41912;51.022;3.664;2024-02-26T04:49:20;9.23;;;5.90;;
56043;SDS011;41912;51.022;3.664;2024-02-26T04:51:46;5.63;;;4.95;;
56043;SDS011;41912;51.022;3.664;2024-02-26T04:54:13;10.88;;;6.30;;
56043;SDS011;41912;51.022;3.664;2024-02-26T04:56:38;8.20;;;5.05;;
56043;SDS011;41912;51.022;3.664;2024-02-26T04:59:04;9.07;;;5.75;;
56043;SDS011;41912;51.022;3.664;2024-02-26T05:01:30;7.53;;;5.65;;
56043;SDS011;41912;51.022;3.664;2024-02-26T05:03:55;7.75;;;5.43;;
56043;SDS011;41912;51.022;3.664;2024-02-26T05:06:21;8.27;;;5.90;;
56043;SDS011;41912;51.022;3.664;2024-02-26T05:08:47;8.95;;;5.53;;
56043;SDS011;41912;51.022;3.664;2024-02-26T05:11:12;7.50;;;5.35;;
56043;SDS011;41912;51.022;3.664;2024-02-26T05:13:38;10.23;;;6.05;;
56043;SDS011;41912;51.022;3.664;2024-02-26T05:16:04;7.05;;;5.07;;
56043;SDS011;41912;51.022;3.664;2024-02-26T05:18:30;6.63;;;4.80;;
56043;SDS011;41912;51.022;3.664;2024-02-26T05:20:56;6.32;;;5.07;;
56043;SDS011;41912;51.022;3.664;2024-02-26T05:23:21;7.13;;;5.60;;
56043;SDS011;41912;51.022;3.664;2024-02-26T05:25:48;6.97;;;5.57;;
56043;SDS011;41912;51.022;3.664;2024-02-26T05:28:14;7.40;;;5.32;;
56043;SDS011;41912;51.022;3.664;2024-02-26T05:30:40;6.82;;;5.15;;
56043;SDS011;41912;51.022;3.664;2024-02-26T05:33:07;10.50;;;5.35;;
56043;SDS011;41912;51.022;3.664;2024-02-26T05:35:33;9.05;;;4.78;;
56043;SDS011;41912;51.022;3.664;2024-02-26T05:37:58;6.10;;;4.50;;
56043;SDS011;41912;51.022;3.664;2024-02-26T05:40:24;4.85;;;4.13;;
56043;SDS011;41912;51.022;3.664;2024-02-26T05:42:49;7.15;;;4.65;;
56043;SDS011;41912;51.022;3.664;2024-02-26T05:45:15;5.78;;;4.50;;
56043;SDS011;41912;51.022;3.664;2024-02-26T05:47:41;4.90;;;4.00;;
56043;SDS011;41912;51.022;3.664;2024-02-26T05:50:10;7.10;;;4.50;;
56043;SDS011;41912;51.022;3.664;2024-02-26T05:52:36;5.38;;;3.97;;
56043;SDS011;41912;51.022;3.664;2024-02-26T05:55:03;7.03;;;4.70;;
56043;SDS011;41912;51.022;3.664;2024-02-26T05:57:30;5.88;;;4.00;;
56043;SDS011;41912;51.022;3.664;2024-02-26T05:59:56;8.02;;;4.70;;
56043;SDS011;41912;51.022;3.664;2024-02-26T06:02:22;5.93;;;5.15;;
56043;SDS011;41912;51.022;3.664;2024-02-26T06:04:47;6.95;;;4.25;;
56043;SDS011;41912;51.022;3.664;2024-02-26T06:07:13;9.70;;;4.90;;
56043;SDS011;41912;51.022;3.664;2024-02-26T06:09:39;7.65;;;4.53;;
56043;SDS011;41912;51.022;3.664;2024-02-26T06:12:04;5.70;;;4.60;;
56043;SDS011;41912;51.022;3.664;2024-02-26T06:14:30;9.30;;;5.60;;
56043;SDS011;41912;51.022;3.664;2024-02-26T06:16:56;7.45;;;4.97;;
56043;SDS011;41912;51.022;3.664;2024-02-26T06:19:21;7.53;;;6.05;;
56043;SDS011;41912;51.022;3.664;2024-02-26T06:21:47;9.82;;;5.88;;
56043;SDS011;41912;51.022;3.664;2024-02-26T06:24:13;7.05;;;5.82;;
56043;SDS011;41912;51.022;3.664;2024-02-26T06:26:38;12.27;;;6.18;;
56043;SDS011;41912;51.022;3.664;2024-02-26T06:29:04;9.38;;;5.70;;
56043;SDS011;41912;51.022;3.664;2024-02-26T06:31:29;8.98;;;5.90;;
56043;SDS011;41912;51.022;3.664;2024-02-26T06:33:55;8.80;;;6.55;;
56043;SDS011;41912;51.022;3.664;2024-02-26T06:36:21;9.68;;;5.97;;
56043;SDS011;41912;51.022;3.664;2024-02-26T06:38:47;10.23;;;7.80;;
56043;SDS011;41912;51.022;3.664;2024-02-26T06:41:14;10.75;;;6.70;;
56043;SDS011;41912;51.022;3.664;2024-02-26T06:43:39;6.95;;;6.25;;
56043;SDS011;41912;51.022;3.664;2024-02-26T06:46:05;7.75;;;5.75;;
56043;SDS011;41912;51.022;3.664;2024-02-26T06:48:32;8.57;;;5.80;;
56043;SDS011;41912;51.022;3.664;2024-02-26T06:50:57;8.60;;;6.10;;
56043;SDS011;41912;51.022;3.664;2024-02-26T06:53:23;10.18;;;6.28;;
56043;SDS011;41912;51.022;3.664;2024-02-26T06:55:49;7.93;;;5.80;;
56043;SDS011;41912;51.022;3.664;2024-02-26T06:58:15;7.22;;;6.00;;
56043;SDS011;41912;51.022;3.664;2024-02-26T07:00:41;8.80;;;5.53;;
56043;SDS011;41912;51.022;3.664;2024-02-26T07:03:06;7.97;;;5.55;;
56043;SDS011;41912;51.022;3.664;2024-02-26T07:05:32;10.05;;;5.95;;
56043;SDS011;41912;51.022;3.664;2024-02-26T07:07:57;8.95;;;5.45;;
56043;SDS011;41912;51.022;3.664;2024-02-26T07:10:23;7.95;;;5.07;;
56043;SDS011;41912;51.022;3.664;2024-02-26T07:12:49;8.57;;;5.40;;
56043;SDS011;41912;51.022;3.664;2024-02-26T07:15:14;7.20;;;4.85;;
56043;SDS011;41912;51.022;3.664;2024-02-26T07:17:41;7.07;;;5.05;;
56043;SDS011;41912;51.022;3.664;2024-02-26T07:20:12;8.27;;;5.03;;
56043;SDS011;41912;51.022;3.664;2024-02-26T07:22:37;6.20;;;5.03;;
56043;SDS011;41912;51.022;3.664;2024-02-26T07:25:03;5.90;;;5.22;;
56043;SDS011;41912;51.022;3.664;2024-02-26T07:27:29;6.68;;;4.80;;
56043;SDS011;41912;51.022;3.664;2024-02-26T07:29:55;6.93;;;5.53;;
56043;SDS011;41912;51.022;3.664;2024-02-26T07:32:20;7.80;;;5.05;;
56043;SDS011;41912;51.022;3.664;2024-02-26T07:34:47;7.50;;;5.55;;
56043;SDS011;41912;51.022;3.664;2024-02-26T07:37:12;6.93;;;4.85;;
56043;SDS011;41912;51.022;3.664;2024-02-26T07:39:38;7.43;;;5.55;;
56043;SDS011;41912;51.022;3.664;2024-02-26T07:42:04;8.93;;;5.53;;
56043;SDS011;41912;51.022;3.664;2024-02-26T07:44:30;8.25;;;4.88;;
56043;SDS011;41912;51.022;3.664;2024-02-26T07:46:55;8.02;;;5.20;;
56043;SDS011;41912;51.022;3.664;2024-02-26T07:49:21;7.05;;;4.80;;
56043;SDS011;41912;51.022;3.664;2024-02-26T07:51:46;9.95;;;5.75;;
56043;SDS011;41912;51.022;3.664;2024-02-26T07:54:12;6.10;;;4.93;;
56043;SDS011;41912;51.022;3.664;2024-02-26T07:56:38;9.45;;;5.93;;
56043;SDS011;41912;51.022;3.664;2024-02-26T07:59:03;11.32;;;5.13;;
56043;SDS011;41912;51.022;3.664;2024-02-26T08:01:29;7.55;;;4.90;;
56043;SDS011;41912;51.022;3.664;2024-02-26T08:03:54;9.00;;;5.72;;
56043;SDS011;41912;51.022;3.664;2024-02-26T08:06:20;6.90;;;4.85;;
56043;SDS011;41912;51.022;3.664;2024-02-26T08:08:46;6.45;;;4.72;;
56043;SDS011;41912;51.022;3.664;2024-02-26T08:11:14;8.70;;;5.03;;
56043;SDS011;41912;51.022;3.664;2024-02-26T08:13:40;6.60;;;4.70;;
56043;SDS011;41912;51.022;3.664;2024-02-26T08:16:06;9.90;;;4.97;;
56043;SDS011;41912;51.022;3.664;2024-02-26T08:18:32;6.82;;;4.78;;
56043;SDS011;41912;51.022;3.664;2024-02-26T08:20:58;7.50;;;5.22;;
56043;SDS011;41912;51.022;3.664;2024-02-26T08:23:23;6.03;;;4.25;;
56043;SDS011;41912;51.022;3.664;2024-02-26T08:25:50;7.68;;;4.57;;
56043;SDS011;41912;51.022;3.664;2024-02-26T08:28:15;7.97;;;5.10;;
56043;SDS011;41912;51.022;3.664;2024-02-26T08:30:43;9.25;;;5.72;;
56043;SDS011;41912;51.022;3.664;2024-02-26T08:33:09;7.05;;;5.00;;
56043;SDS011;41912;51.022;3.664;2024-02-26T08:35:35;7.22;;;4.88;;
56043;SDS011;41912;51.022;3.664;2024-02-26T08:38:01;7.70;;;5.85;;
56043;SDS011;41912;51.022;3.664;2024-02-26T08:40:27;7.68;;;5.15;;
56043;SDS011;41912;51.022;3.664;2024-02-26T08:42:53;9.30;;;4.95;;
56043;SDS011;41912;51.022;3.664;2024-02-26T08:45:19;9.25;;;5.82;;
56043;SDS011;41912;51.022;3.664;2024-02-26T08:47:45;8.50;;;5.32;;
56043;SDS011;41912;51.022;3.664;2024-02-26T08:50:11;6.47;;;5.07;;
56043;SDS011;41912;51.022;3.664;2024-02-26T08:52:37;11.00;;;5.25;;
56043;SDS011;41912;51.022;3.664;2024-02-26T08:55:03;7.32;;;5.05;;
56043;SDS011;41912;51.022;3.664;2024-02-26T08:57:30;9.02;;;5.18;;
56043;SDS011;41912;51.022;3.664;2024-02-26T08:59:58;8.85;;;5.35;;
56043;SDS011;41912;51.022;3.664;2024-02-26T09:02:25;10.32;;;4.88;;
56043;SDS011;41912;51.022;3.664;2024-02-26T09:04:51;7.28;;;5.22;;
56043;SDS011;41912;51.022;3.664;2024-02-26T09:07:19;8.07;;;5.55;;
56043;SDS011;41912;51.022;3.664;2024-02-26T09:09:45;13.88;;;5.13;;
56043;SDS011;41912;51.022;3.664;2024-02-26T09:12:10;10.18;;;5.63;;
56043;SDS011;41912;51.022;3.664;2024-02-26T09:14:36;9.35;;;5.88;;
56043;SDS011;41912;51.022;3.664;2024-02-26T09:17:02;7.45;;;5.03;;
56043;SDS011;41912;51.022;3.664;2024-02-26T09:19:28;8.90;;;5.40;;
56043;SDS011;41912;51.022;3.664;2024-02-26T09:21:54;9.48;;;5.68;;
56043;SDS011;41912;51.022;3.664;2024-02-26T09:24:22;9.23;;;5.43;;
56043;SDS011;41912;51.022;3.664;2024-02-26T09:26:51;10.80;;;6.15;;
56043;SDS011;41912;51.022;3.664;2024-02-26T09:29:17;9.55;;;5.70;;
56043;SDS011;41912;51.022;3.664;2024-02-26T09:31:43;8.68;;;5.63;;
56043;SDS011;41912;51.022;3.664;2024-02-26T09:34:12;12.10;;;6.07;;
56043;SDS011;41912;51.022;3.664;2024-02-26T09:36:37;8.30;;;6.28;;
56043;SDS011;41912;51.022;3.664;2024-02-26T09:39:03;8.57;;;6.53;;
56043;SDS011;41912;51.022;3.664;2024-02-26T09:41:29;8.63;;;6.35;;
56043;SDS011;41912;51.022;3.664;2024-02-26T09:43:58;10.40;;;6.47;;
56043;SDS011;41912;51.022;3.664;2024-02-26T09:46:27;9.07;;;5.80;;
56043;SDS011;41912;51.022;3.664;2024-02-26T09:48:53;10.82;;;6.65;;
56043;SDS011;41912;51.022;3.664;2024-02-26T09:51:20;11.57;;;7.10;;
56043;SDS011;41912;51.022;3.664;2024-02-26T09:53:51;8.02;;;6.55;;
56043;SDS011;41912;51.022;3.664;2024-02-26T09:56:17;11.93;;;7.15;;
56043;SDS011;41912;51.022;3.664;2024-02-26T09:58:43;11.00;;;7.32;;
56043;SDS011;41912;51.022;3.664;2024-02-26T10:01:17;13.35;;;6.85;;
56043;SDS011;41912;51.022;3.664;2024-02-26T10:03:44;11.73;;;7.40;;
56043;SDS011;41912;51.022;3.664;2024-02-26T10:06:22;9.80;;;7.25;;
56043;SDS011;41912;51.022;3.664;2024-02-26T10:08:49;10.65;;;7.05;;
56043;SDS011;41912;51.022;3.664;2024-02-26T10:11:16;10.45;;;7.28;;
56043;SDS011;41912;51.022;3.664;2024-02-26T10:13:42;10.30;;;7.47;;
56043;SDS011;41912;51.022;3.664;2024-02-26T10:16:08;12.57;;;7.25;;
56043;SDS011;41912;51.022;3.664;2024-02-26T10:18:47;10.45;;;7.45;;
56043;SDS011;41912;51.022;3.664;2024-02-26T10:21:13;11.65;;;7.68;;
56043;SDS011;41912;51.022;3.664;2024-02-26T10:23:42;12.00;;;8.05;;
56043;SDS011;41912;51.022;3.664;2024-02-26T10:26:18;10.93;;;7.80;;
56043;SDS011;41912;51.022;3.664;2024-02-26T10:28:44;11.57;;;8.10;;
56043;SDS011;41912;51.022;3.664;2024-02-26T10:31:10;15.30;;;7.85;;
56043;SDS011;41912;51.022;3.664;2024-02-26T10:33:38;15.00;;;8.15;;
56043;SDS011;41912;51.022;3.664;2024-02-26T10:36:05;11.90;;;7.68;;
56043;SDS011;41912;51.022;3.664;2024-02-26T10:38:35;12.23;;;8.13;;
56043;SDS011;41912;51.022;3.664;2024-02-26T10:41:01;12.68;;;8.05;;
56043;SDS011;41912;51.022;3.664;2024-02-26T10:43:28;12.13;;;8.00;;
56043;SDS011;41912;51.022;3.664;2024-02-26T10:45:57;12.50;;;8.10;;
56043;SDS011;41912;51.022;3.664;2024-02-26T10:48:23;11.15;;;7.68;;
56043;SDS011;41912;51.022;3.664;2024-02-26T10:50:49;16.42;;;9.38;;
56043;SDS011;41912;51.022;3.664;2024-02-26T10:53:26;13.38;;;8.18;;
56043;SDS011;41912;51.022;3.664;2024-02-26T10:55:55;12.52;;;8.38;;
56043;SDS011;41912;51.022;3.664;2024-02-26T10:58:25;13.50;;;8.07;;
56043;SDS011;41912;51.022;3.664;2024-02-26T11:00:52;15.13;;;8.43;;
56043;SDS011;41912;51.022;3.664;2024-02-26T11:03:19;13.35;;;8.55;;
56043;SDS011;41912;51.022;3.664;2024-02-26T11:05:49;15.10;;;9.48;;
56043;SDS011;41912;51.022;3.664;2024-02-26T11:08:16;16.30;;;9.95;;
56043;SDS011;41912;51.022;3.664;2024-02-26T11:10:43;16.67;;;10.88;;
56043;SDS011;41912;51.022;3.664;2024-02-26T11:13:12;20.83;;;11.20;;
56043;SDS011;41912;51.022;3.664;2024-02-26T11:15:39;20.67;;;10.77;;
56043;SDS011;41912;51.022;3.664;2024-02-26T11:18:05;16.80;;;10.93;;
56043;SDS011;41912;51.022;3.664;2024-02-26T11:20:32;21.25;;;11.82;;
56043;SDS011;41912;51.022;3.664;2024-02-26T11:22:59;18.77;;;11.63;;
56043;SDS011;41912;51.022;3.664;2024-02-26T11:25:25;18.88;;;11.38;;
56043;SDS011;41912;51.022;3.664;2024-02-26T11:27:51;19.58;;;11.57;;
56043;SDS011;41912;51.022;3.664;2024-02-26T11:30:24;19.17;;;12.75;;
56043;SDS011;41912;51.022;3.664;2024-02-26T11:32:51;22.15;;;12.60;;
56043;SDS011;41912;51.022;3.664;2024-02-26T11:35:18;24.85;;;13.38;;
56043;SDS011;41912;51.022;3.664;2024-02-26T11:38:05;16.85;;;11.45;;
56043;SDS011;41912;51.022;3.664;2024-02-26T11:40:31;18.95;;;12.55;;
56043;SDS011;41912;51.022;3.664;2024-02-26T11:42:58;18.50;;;11.73;;
56043;SDS011;41912;51.022;3.664;2024-02-26T11:48:11;16.83;;;11.63;;
56043;SDS011;41912;51.022;3.664;2024-02-26T11:50:45;22.75;;;11.20;;
56043;SDS011;41912;51.022;3.664;2024-02-26T11:53:25;18.23;;;11.52;;
56043;SDS011;41912;51.022;3.664;2024-02-26T11:58:43;18.08;;;10.63;;
56043;SDS011;41912;51.022;3.664;2024-02-26T12:06:44;14.20;;;9.13;;
56043;SDS011;41912;51.022;3.664;2024-02-26T12:09:11;12.57;;;9.20;;
56043;SDS011;41912;51.022;3.664;2024-02-26T12:11:38;13.40;;;9.43;;
56043;SDS011;41912;51.022;3.664;2024-02-26T12:14:06;12.85;;;7.97;;
56043;SDS011;41912;51.022;3.664;2024-02-26T12:16:39;11.38;;;8.23;;
56043;SDS011;41912;51.022;3.664;2024-02-26T12:19:08;13.00;;;8.27;;
56043;SDS011;41912;51.022;3.664;2024-02-26T12:21:37;11.07;;;8.05;;
56043;SDS011;41912;51.022;3.664;2024-02-26T12:24:15;12.52;;;7.93;;
56043;SDS011;41912;51.022;3.664;2024-02-26T12:26:41;10.60;;;7.38;;
56043;SDS011;41912;51.022;3.664;2024-02-26T12:29:07;10.07;;;6.70;;
56043;SDS011;41912;51.022;3.664;2024-02-26T12:31:33;11.65;;;7.68;;
56043;SDS011;41912;51.022;3.664;2024-02-26T12:34:02;11.38;;;6.75;;
56043;SDS011;41912;51.022;3.664;2024-02-26T12:36:28;10.50;;;7.18;;
56043;SDS011;41912;51.022;3.664;2024-02-26T12:38:54;10.70;;;6.88;;
56043;SDS011;41912;51.022;3.664;2024-02-26T12:41:20;14.00;;;6.80;;
56043;SDS011;41912;51.022;3.664;2024-02-26T12:43:47;8.55;;;6.03;;
56043;SDS011;41912;51.022;3.664;2024-02-26T12:46:12;8.43;;;5.80;;
56043;SDS011;41912;51.022;3.664;2024-02-26T12:48:41;8.88;;;6.20;;
56043;SDS011;41912;51.022;3.664;2024-02-26T12:51:08;7.15;;;4.90;;
56043;SDS011;41912;51.022;3.664;2024-02-26T12:53:35;9.40;;;5.88;;
56043;SDS011;41912;51.022;3.664;2024-02-26T12:56:01;8.70;;;5.95;;
56043;SDS011;41912;51.022;3.664;2024-02-26T12:58:28;6.85;;;4.75;;
56043;SDS011;41912;51.022;3.664;2024-02-26T13:00:56;6.38;;;4.68;;
56043;SDS011;41912;51.022;3.664;2024-02-26T13:03:22;8.18;;;5.15;;
56043;SDS011;41912;51.022;3.664;2024-02-26T13:05:48;8.00;;;5.50;;
56043;SDS011;41912;51.022;3.664;2024-02-26T13:08:18;8.32;;;5.40;;
56043;SDS011;41912;51.022;3.664;2024-02-26T13:10:47;10.38;;;5.72;;
56043;SDS011;41912;51.022;3.664;2024-02-26T13:13:17;8.98;;;6.15;;
56043;SDS011;41912;51.022;3.664;2024-02-26T13:15:44;8.57;;;5.15;;
56043;SDS011;41912;51.022;3.664;2024-02-26T13:18:11;9.77;;;5.88;;
56043;SDS011;41912;51.022;3.664;2024-02-26T13:20:39;9.15;;;6.30;;
56043;SDS011;41912;51.022;3.664;2024-02-26T13:23:06;13.63;;;6.03;;
56043;SDS011;41912;51.022;3.664;2024-02-26T13:25:33;8.32;;;5.38;;
56043;SDS011;41912;51.022;3.664;2024-02-26T13:28:07;6.80;;;5.03;;
56043;SDS011;41912;51.022;3.664;2024-02-26T13:30:41;11.23;;;5.90;;
56043;SDS011;41912;51.022;3.664;2024-02-26T13:33:10;7.18;;;4.90;;
56043;SDS011;41912;51.022;3.664;2024-02-26T13:35:37;7.38;;;4.60;;
56043;SDS011;41912;51.022;3.664;2024-02-26T13:38:04;8.23;;;5.85;;
56043;SDS011;41912;51.022;3.664;2024-02-26T13:40:31;7.88;;;5.70;;
56043;SDS011;41912;51.022;3.664;2024-02-26T13:42:58;6.95;;;5.07;;
56043;SDS011;41912;51.022;3.664;2024-02-26T13:45:24;6.50;;;5.00;;
56043;SDS011;41912;51.022;3.664;2024-02-26T13:47:50;11.43;;;5.35;;
56043;SDS011;41912;51.022;3.664;2024-02-26T13:50:15;10.90;;;5.85;;
56043;SDS011;41912;51.022;3.664;2024-02-26T13:52:41;9.05;;;6.15;;
56043;SDS011;41912;51.022;3.664;2024-02-26T13:55:08;9.35;;;5.45;;
56043;SDS011;41912;51.022;3.664;2024-02-26T13:57:33;8.52;;;5.70;;
56043;SDS011;41912;51.022;3.664;2024-02-26T13:59:59;8.35;;;5.50;;
56043;SDS011;41912;51.022;3.664;2024-02-26T14:02:25;8.85;;;4.90;;
56043;SDS011;41912;51.022;3.664;2024-02-26T14:04:50;12.68;;;6.22;;
56043;SDS011;41912;51.022;3.664;2024-02-26T14:07:16;9.13;;;5.57;;
56043;SDS011;41912;51.022;3.664;2024-02-26T14:09:45;7.70;;;5.40;;
56043;SDS011;41912;51.022;3.664;2024-02-26T14:12:10;9.13;;;5.78;;
56043;SDS011;41912;51.022;3.664;2024-02-26T14:14:36;7.35;;;5.43;;
56043;SDS011;41912;51.022;3.664;2024-02-26T14:17:04;9.10;;;5.55;;
56043;SDS011;41912;51.022;3.664;2024-02-26T14:19:30;9.73;;;5.57;;
56043;SDS011;41912;51.022;3.664;2024-02-26T14:21:56;9.85;;;5.72;;
56043;SDS011;41912;51.022;3.664;2024-02-26T14:24:22;8.25;;;5.03;;
56043;SDS011;41912;51.022;3.664;2024-02-26T14:26:47;6.20;;;5.40;;
56043;SDS011;41912;51.022;3.664;2024-02-26T14:29:13;6.65;;;5.13;;
56043;SDS011;41912;51.022;3.664;2024-02-26T14:31:39;8.85;;;5.68;;
56043;SDS011;41912;51.022;3.664;2024-02-26T14:34:04;7.18;;;5.32;;
56043;SDS011;41912;51.022;3.664;2024-02-26T14:36:30;7.00;;;5.00;;
56043;SDS011;41912;51.022;3.664;2024-02-26T14:38:56;8.18;;;5.28;;
56043;SDS011;41912;51.022;3.664;2024-02-26T14:41:21;8.15;;;5.65;;
56043;SDS011;41912;51.022;3.664;2024-02-26T14:43:47;6.55;;;4.75;;
56043;SDS011;41912;51.022;3.664;2024-02-26T14:46:13;10.05;;;5.82;;
56043;SDS011;41912;51.022;3.664;2024-02-26T14:48:38;9.02;;;6.07;;
56043;SDS011;41912;51.022;3.664;2024-02-26T14:51:04;9.52;;;6.40;;